Currently 54°F in Anza, California, USA
54°F
61°F / 36°F
calm
0.00"
Wednesday, December 12, 2018 8:54 PM PST

Anza, California Weather Summary
Last 36 Hours

Temperature Winds Hourly Humidity Dewpoint
Time Report Norm Report Norm Max Gusts Precip. Rpt. Norm Rpt. Norm Pressure
1Wed 08:54 PM  54.0°F  44°F  calm  4 mph  13 mph  0.00"  35%  69%  26°F  34°F  N/A
Wed 08:00 PM  54.0°F  44°F  6 mph SE  5 mph  17 mph  0.00"  35%  69%  26°F  34°F  N/A
Wed 07:00 PM  54.9°F  45°F  calm  5 mph  15 mph  0.00"  32%  67%  24°F  35°F  N/A
Wed 06:00 PM  56.5°F  47°F  calm  5 mph  29 mph  0.00"  33%  65%  26°F  35°F  N/A
Wed 05:00 PM  56.4°F  49°F  9 mph E  5 mph  23 mph  0.00"  36%  60%  29°F  36°F  N/A
Wed 04:00 PM  59.3°F  54°F  9 mph E  7 mph  19 mph  0.00"  37%  53%  32°F  36°F  N/A
Wed 03:00 PM  60.1°F  56°F  calm  9 mph  none  0.00"  49%  49%  40°F  37°F  N/A
Wed 02:00 PM  60.5°F  57°F  calm  9 mph  14 mph  0.00"  46%  47%  39°F  37°F  N/A
2Wed 01:08 PM  61.3°F  58°F  calm  9 mph  17 mph  ----  45%  47%  39°F  37°F  N/A
Wed 01:00 PM  60.6°F  57°F  6 mph NW  9 mph  20 mph  0.00"  47%  47%  39°F  37°F  N/A
Wed 12:00 PM  60.4°F  57°F  11 mph NW  9 mph  23 mph  0.00"  45%  48%  38°F  37°F  N/A
Wed 11:00 AM  60.3°F  56°F  calm  9 mph  20 mph  0.00"  42%  49%  36°F  37°F  N/A
Wed 10:00 AM  57.9°F  54°F  13 mph W  8 mph  20 mph  0.00"  47%  52%  37°F  36°F  N/A
Wed 09:00 AM  54.0°F  52°F  9 mph NW  7 mph  12 mph  0.00"  59%  57%  39°F  36°F  N/A
Wed 08:00 AM  46.9°F  48°F  9 mph NW  5 mph  14 mph  0.00"  72%  63%  38°F  35°F  N/A
Wed 07:00 AM  45.1°F  43°F  3 mph NW  5 mph  13 mph  0.00"  74%  69%  37°F  33°F  N/A
Wed 06:00 AM  44.0°F  42°F  calm  5 mph  13 mph  0.00"  77%  69%  37°F  32°F  N/A
Wed 05:00 AM  42.7°F  42°F  calm  4 mph  none  0.00"  79%  69%  36°F  33°F  N/A
Wed 04:00 AM  40.6°F  42°F  calm  5 mph  none  0.00"  79%  70%  34°F  33°F  N/A
Wed 03:00 AM  37.8°F  42°F  calm  5 mph  9 mph  0.00"  85%  70%  34°F  33°F  N/A
Wed 02:00 AM  38.1°F  42°F  4 mph NW  4 mph  12 mph  0.00"  84%  70%  34°F  33°F  N/A
Wed 01:00 AM  36.3°F  43°F  4 mph E  5 mph  5 mph  0.00"  89%  70%  33°F  33°F  N/A
3Wed 12:53 AM  35.9°F  43°F  2 mph N  4 mph  5 mph  ----  88%  70%  33°F  33°F  N/A
Wed 12:00 AM  38.4°F  43°F  calm  4 mph  6 mph  0.00"  85%  70%  34°F  34°F  N/A
Tue 11:00 PM  37.5°F  43°F  2 mph NW  4 mph  9 mph  0.00"  85%  70%  33°F  34°F  N/A
Tue 10:00 PM  39.2°F  44°F  3 mph SW  4 mph  5 mph  0.00"  83%  70%  34°F  34°F  N/A
Tue 09:00 PM  45.9°F  44°F  calm  5 mph  8 mph  0.00"  68%  69%  35°F  35°F  N/A
Tue 08:00 PM  45.9°F  45°F  1 mph W  5 mph  7 mph  0.00"  70%  69%  36°F  35°F  N/A
Tue 07:00 PM  46.8°F  46°F  3 mph E  5 mph  6 mph  0.00"  68%  68%  36°F  35°F  N/A
Tue 06:00 PM  48.4°F  47°F  calm  5 mph  10 mph  0.00"  65%  65%  37°F  36°F  N/A
Tue 05:00 PM  48.3°F  50°F  4 mph NE  5 mph  4 mph  0.00"  69%  61%  38°F  36°F  N/A
Tue 04:00 PM  55.2°F  54°F  calm  7 mph  none  0.00"  55%  53%  39°F  37°F  N/A
Tue 03:00 PM  56.5°F  56°F  calm  9 mph  17 mph  0.00"  53%  50%  39°F  37°F  N/A
Tue 02:00 PM  58.3°F  57°F  calm  9 mph  11 mph  0.00"  49%  48%  38°F  37°F  N/A
Tue 01:00 PM  57.4°F  58°F  5 mph W  10 mph  15 mph  0.00"  50%  47%  38°F  37°F  N/A
Tue 12:00 PM  56.4°F  57°F  calm  9 mph  13 mph  0.00"  50%  48%  37°F  37°F  N/A
Tue 11:00 AM  55.6°F  57°F  calm  9 mph  13 mph  0.00"  52%  49%  37°F  37°F  N/A
Tue 10:00 AM  53.4°F  55°F  calm  8 mph  14 mph  0.00"  54%  52%  37°F  36°F  N/A
Tue 09:00 AM  51.9°F  52°F  calm  7 mph  18 mph  0.00"  60%  57%  38°F  36°F  N/A

  1. Current weather data. No green row appears if the current weather data is also the high or low for the current day.
  2. High temperature for the current day.
  3. Low temperature for the current day.

The Anza, California weather pages are a service of WeatherCurrents. The Anza Valley is southwestern Riverside County, east of Temecula and Aguanga, south of Mount San Jacinto and west of Mount Santa Rosa.
Copyright ©Wed Dec 12 20:55:02 PST 2018  WeatherCurrents. All rights reserved. - Submit questions and comments - Privacy Policy

This page automatically refreshes every 10 minutes.